createdAt,value
2022-11-05T00:01:16.085Z,9.20
2022-11-05T00:04:03.008Z,9.18
2022-11-05T00:06:49.725Z,9.20
2022-11-05T00:09:29.570Z,9.21
2022-11-05T00:12:18.906Z,9.19
2022-11-05T00:15:06.383Z,9.07
2022-11-05T00:17:34.380Z,9.08
2022-11-05T00:20:02.359Z,9.06
2022-11-05T00:22:49.234Z,9.03
2022-11-05T00:25:18.686Z,9.03
2022-11-05T00:27:50.404Z,9.06
2022-11-05T00:30:25.547Z,9.01
2022-11-05T00:32:53.997Z,9.02
2022-11-05T00:35:22.597Z,9.08
2022-11-05T00:37:53.264Z,9.09
2022-11-05T00:40:21.225Z,9.05
2022-11-05T00:43:08.098Z,9.09
2022-11-05T00:45:37.778Z,9.06
2022-11-05T00:48:24.796Z,9.07
2022-11-05T00:50:52.732Z,9.09
2022-11-05T00:53:20.599Z,9.09
2022-11-05T00:55:48.486Z,9.06
2022-11-05T00:58:21.846Z,9.09
2022-11-05T01:00:52.825Z,9.06
2022-11-05T01:03:25.885Z,9.05
2022-11-05T01:05:58.181Z,9.04
2022-11-05T01:08:27.989Z,8.98
2022-11-05T01:10:58.731Z,8.97
2022-11-05T01:13:30.227Z,8.99
2022-11-05T01:15:58.103Z,9.00
2022-11-05T01:18:26.045Z,9.01
2022-11-05T01:20:53.951Z,9.00
2022-11-05T01:23:22.215Z,9.10
2022-11-05T01:25:50.243Z,9.05
2022-11-05T01:28:18.140Z,9.07
2022-11-05T01:30:46.047Z,9.17
2022-11-05T01:33:14.192Z,9.02
2022-11-05T01:35:42.366Z,9.01
2022-11-05T01:38:10.224Z,9.05
2022-11-05T01:40:42.557Z,9.04
2022-11-05T01:43:23.081Z,9.13
2022-11-05T01:45:58.503Z,9.10
2022-11-05T01:48:35.148Z,8.99
2022-11-05T01:51:08.937Z,9.08
2022-11-05T01:53:47.174Z,9.16
2022-11-05T01:56:23.818Z,9.18
2022-11-05T01:59:05.655Z,9.11
2022-11-05T02:01:33.655Z,9.18
2022-11-05T02:04:08.121Z,9.06
2022-11-05T02:06:45.952Z,9.07
2022-11-05T02:09:25.478Z,9.11
2022-11-05T02:11:53.612Z,9.17
2022-11-05T02:14:21.698Z,9.11
2022-11-05T02:17:01.888Z,9.10
2022-11-05T02:20:09.622Z,9.06
2022-11-05T02:22:51.951Z,8.92
2022-11-05T02:26:08.209Z,8.95
2022-11-05T02:29:14.342Z,8.91
2022-11-05T02:32:00.620Z,8.91
2022-11-05T02:34:58.932Z,8.52
2022-11-05T02:37:46.028Z,8.34
2022-11-05T02:40:31.465Z,8.25
2022-11-05T02:43:15.193Z,8.21
2022-11-05T02:46:20.683Z,8.19
2022-11-05T02:49:00.087Z,8.19
2022-11-05T02:51:58.326Z,8.18
2022-11-05T02:54:35.864Z,8.20
2022-11-05T02:57:04.897Z,8.25
2022-11-05T02:59:33.003Z,8.28
2022-11-05T03:02:03.860Z,8.24
2022-11-05T03:04:32.379Z,8.29
2022-11-05T03:07:22.600Z,8.26
2022-11-05T03:10:14.036Z,8.24
2022-11-05T03:13:00.363Z,8.28
2022-11-05T03:15:56.240Z,8.36
2022-11-05T03:18:46.280Z,8.84
2022-11-05T03:21:26.214Z,8.81
2022-11-05T03:24:10.854Z,8.85
2022-11-05T03:26:45.390Z,8.89
2022-11-05T03:29:22.457Z,8.92
2022-11-05T03:31:54.294Z,8.99
2022-11-05T03:34:29.546Z,9.02
2022-11-05T03:36:58.712Z,9.01
2022-11-05T03:39:36.564Z,9.06
2022-11-05T03:42:08.758Z,9.07
2022-11-05T03:44:43.374Z,9.03
2022-11-05T03:47:17.910Z,9.01
2022-11-05T03:50:13.943Z,9.10
2022-11-05T03:52:59.137Z,9.08
2022-11-05T03:55:35.365Z,9.09
2022-11-05T03:58:05.481Z,9.14
2022-11-05T04:00:33.845Z,9.18
2022-11-05T04:03:01.833Z,9.19
2022-11-05T04:05:29.931Z,9.17
2022-11-05T04:08:16.652Z,9.20
2022-11-05T04:11:03.432Z,9.21
2022-11-05T04:13:32.922Z,9.23
2022-11-05T04:16:19.344Z,9.26
2022-11-05T04:18:47.448Z,9.32
2022-11-05T04:21:34.248Z,9.32
2022-11-05T04:24:08.195Z,9.32
2022-11-05T04:26:44.022Z,9.33
2022-11-05T04:29:30.832Z,9.39
2022-11-05T04:31:58.805Z,9.39
2022-11-05T04:34:26.827Z,9.39
2022-11-05T04:36:54.744Z,9.42
2022-11-05T04:39:22.640Z,9.40
2022-11-05T04:41:50.491Z,9.42
2022-11-05T04:44:18.324Z,9.42
2022-11-05T04:46:46.199Z,9.41
2022-11-05T04:49:14.058Z,9.41
2022-11-05T04:51:41.945Z,9.40
2022-11-05T04:54:09.807Z,9.37
2022-11-05T04:56:37.630Z,9.40
2022-11-05T04:59:05.466Z,9.38
2022-11-05T05:01:33.592Z,9.38
2022-11-05T05:04:01.558Z,9.36
2022-11-05T05:06:29.424Z,9.37
2022-11-05T05:08:57.335Z,9.36
2022-11-05T05:11:25.346Z,9.36
2022-11-05T05:13:53.255Z,9.33
2022-11-05T05:16:27.466Z,9.36
2022-11-05T05:18:55.316Z,9.38
2022-11-05T05:21:39.149Z,9.35
2022-11-05T05:24:14.932Z,9.38
2022-11-05T05:26:46.502Z,9.36
2022-11-05T05:29:15.560Z,9.39
2022-11-05T05:31:44.502Z,9.35
2022-11-05T05:34:14.693Z,9.36
2022-11-05T05:36:42.573Z,9.32
2022-11-05T05:39:11.001Z,9.32
2022-11-05T05:41:39.173Z,9.34
2022-11-05T05:44:07.081Z,9.27
2022-11-05T05:46:35.046Z,9.23
2022-11-05T05:49:05.503Z,9.23
2022-11-05T05:51:37.478Z,9.20
2022-11-05T05:54:05.528Z,9.22
2022-11-05T05:56:33.359Z,9.15
2022-11-05T05:59:01.206Z,9.18
2022-11-05T06:01:29.171Z,9.13
2022-11-05T06:03:57.133Z,9.11
2022-11-05T06:06:25.025Z,9.09
2022-11-05T06:08:54.179Z,9.10
2022-11-05T06:11:24.405Z,9.06
2022-11-05T06:13:52.386Z,9.05
2022-11-05T06:16:20.410Z,9.08
2022-11-05T06:18:49.016Z,9.06
2022-11-05T06:21:17.931Z,9.03
2022-11-05T06:23:48.299Z,9.01
2022-11-05T06:26:18.570Z,9.04
2022-11-05T06:28:46.580Z,9.01
2022-11-05T06:31:15.532Z,9.01
2022-11-05T06:33:43.396Z,8.99
2022-11-05T06:36:17.028Z,9.00
2022-11-05T06:38:45.351Z,8.99
2022-11-05T06:41:13.586Z,9.06
2022-11-05T06:43:44.145Z,9.07
2022-11-05T06:46:12.243Z,9.12
2022-11-05T06:48:40.518Z,9.15
2022-11-05T06:51:09.728Z,9.13
2022-11-05T06:53:37.627Z,9.12
2022-11-05T06:56:07.751Z,9.18
2022-11-05T06:58:36.148Z,9.25
2022-11-05T07:01:10.066Z,9.24
2022-11-05T07:03:39.131Z,9.21
2022-11-05T07:06:07.607Z,9.22
2022-11-05T07:08:37.622Z,9.25
2022-11-05T07:11:06.352Z,9.32
2022-11-05T07:13:34.451Z,9.34
2022-11-05T07:16:02.347Z,9.29
2022-11-05T07:18:30.258Z,9.35
2022-11-05T07:21:00.485Z,9.38
2022-11-05T07:23:28.384Z,9.34
2022-11-05T07:25:56.411Z,9.33
2022-11-05T07:28:24.378Z,9.32
2022-11-05T07:30:52.331Z,9.33
2022-11-05T07:33:20.317Z,9.30
2022-11-05T07:35:48.315Z,9.30
2022-11-05T07:38:16.897Z,9.30
2022-11-05T07:40:45.076Z,9.32
2022-11-05T07:43:13.316Z,9.32
2022-11-05T07:45:41.871Z,9.35
2022-11-05T07:48:09.917Z,9.37
2022-11-05T07:50:38.107Z,9.37
2022-11-05T07:53:10.716Z,9.38
2022-11-05T07:55:40.727Z,9.39
2022-11-05T07:58:10.937Z,9.47
2022-11-05T08:00:39.576Z,9.53
2022-11-05T08:03:12.160Z,9.54
2022-11-05T08:05:44.443Z,9.61
2022-11-05T08:08:16.392Z,9.68
2022-11-05T08:10:45.034Z,9.74
2022-11-05T08:13:14.244Z,9.72
2022-11-05T08:15:43.292Z,9.73
2022-11-05T08:18:17.143Z,9.76
2022-11-05T08:20:46.799Z,9.79
2022-11-05T08:23:15.661Z,9.74
2022-11-05T08:25:43.763Z,9.74
2022-11-05T08:28:12.935Z,9.84
2022-11-05T08:30:41.089Z,9.85
2022-11-05T08:33:12.895Z,9.91
2022-11-05T08:35:41.095Z,9.93
2022-11-05T08:38:13.816Z,9.98
2022-11-05T08:40:43.703Z,9.85
2022-11-05T08:43:14.825Z,9.88
2022-11-05T08:45:42.917Z,9.81
2022-11-05T08:48:17.690Z,9.89
2022-11-05T08:50:47.601Z,9.84
2022-11-05T08:53:16.434Z,9.90
2022-11-05T08:55:47.479Z,9.93
2022-11-05T08:58:17.069Z,9.92
2022-11-05T09:00:48.882Z,9.95
2022-11-05T09:03:16.993Z,9.98
2022-11-05T09:05:45.266Z,9.90
2022-11-05T09:08:17.077Z,9.92
2022-11-05T09:10:47.077Z,10.00
2022-11-05T09:13:19.315Z,10.17
2022-11-05T09:15:51.444Z,10.19
2022-11-05T09:18:20.370Z,10.25
2022-11-05T09:20:48.422Z,10.35
2022-11-05T09:23:17.040Z,10.43
2022-11-05T09:25:45.212Z,10.33
2022-11-05T09:28:20.329Z,10.37
2022-11-05T09:30:51.886Z,10.32
2022-11-05T09:33:24.201Z,10.33
2022-11-05T09:35:53.524Z,10.32
2022-11-05T09:38:21.668Z,10.38
2022-11-05T09:41:01.956Z,10.44
2022-11-05T09:43:49.146Z,10.49
2022-11-05T09:46:45.320Z,10.47
2022-11-05T09:49:26.543Z,10.52
2022-11-05T09:51:57.500Z,10.64
2022-11-05T09:54:31.523Z,10.59
2022-11-05T09:57:03.157Z,10.32
2022-11-05T09:59:51.780Z,10.40
2022-11-05T10:02:35.476Z,10.64
2022-11-05T10:05:10.276Z,10.59
2022-11-05T10:07:52.980Z,10.62
2022-11-05T10:10:40.901Z,10.67
2022-11-05T10:13:42.263Z,10.66
2022-11-05T10:16:30.959Z,10.66
2022-11-05T10:19:24.160Z,10.64
2022-11-05T10:22:11.737Z,10.54
2022-11-05T10:24:44.604Z,10.56
2022-11-05T10:27:31.821Z,10.56
2022-11-05T10:30:00.413Z,10.59
2022-11-05T10:32:38.567Z,10.35
2022-11-05T10:35:13.295Z,10.46
2022-11-05T10:37:41.340Z,10.55
2022-11-05T10:40:29.913Z,10.54
2022-11-05T10:43:09.637Z,10.52
2022-11-05T10:45:52.465Z,10.58
2022-11-05T10:48:52.862Z,10.59
2022-11-05T10:51:20.737Z,10.46
2022-11-05T10:54:01.666Z,10.53
2022-11-05T10:56:39.952Z,10.54
2022-11-05T10:59:25.513Z,10.46
2022-11-05T11:02:20.937Z,10.51
2022-11-05T11:04:56.013Z,10.46
2022-11-05T11:07:26.505Z,10.46
2022-11-05T11:09:54.583Z,10.52
2022-11-05T11:12:40.567Z,10.58
2022-11-05T11:15:19.658Z,10.57
2022-11-05T11:17:47.872Z,10.46
2022-11-05T11:20:31.418Z,10.38
2022-11-05T11:23:17.969Z,10.04
2022-11-05T11:26:01.566Z,10.41
2022-11-05T11:28:53.970Z,10.50
2022-11-05T11:31:25.160Z,10.38
2022-11-05T11:34:16.278Z,10.53
2022-11-05T11:36:48.774Z,10.60
2022-11-05T11:39:30.477Z,10.57
2022-11-05T11:42:05.753Z,10.79
2022-11-05T11:44:43.088Z,10.71
2022-11-05T11:47:16.677Z,10.83
2022-11-05T11:49:47.484Z,10.83
2022-11-05T11:52:39.661Z,10.87
2022-11-05T11:55:19.748Z,10.75
2022-11-05T11:58:05.072Z,10.80
2022-11-05T12:00:46.198Z,10.77
2022-11-05T12:03:30.901Z,10.74
2022-11-05T12:06:26.311Z,10.85
2022-11-05T12:09:11.695Z,10.77
2022-11-05T12:11:56.978Z,10.73
2022-11-05T12:14:45.161Z,10.78
2022-11-05T12:17:51.057Z,10.89
2022-11-05T12:20:31.270Z,10.72
2022-11-05T12:23:29.845Z,10.29
2022-11-05T12:26:24.700Z,10.14
2022-11-05T12:29:19.614Z,10.32
2022-11-05T12:32:22.240Z,10.34
2022-11-05T12:35:18.258Z,10.44
2022-11-05T12:38:09.573Z,10.49
2022-11-05T12:40:58.109Z,10.44
2022-11-05T12:44:00.948Z,10.47
2022-11-05T12:46:50.809Z,10.54
2022-11-05T12:49:47.433Z,10.87
2022-11-05T12:53:12.456Z,10.61
2022-11-05T12:55:48.856Z,10.49
2022-11-05T12:58:27.809Z,10.54
2022-11-05T13:01:08.666Z,10.61
2022-11-05T13:03:54.535Z,10.67
2022-11-05T13:06:35.877Z,10.74
2022-11-05T13:09:28.760Z,10.74
2022-11-05T13:12:03.668Z,10.70
2022-11-05T13:14:57.605Z,10.75
2022-11-05T13:17:38.614Z,10.87
2022-11-05T13:20:17.587Z,11.44
2022-11-05T13:22:51.964Z,11.82
2022-11-05T13:25:28.267Z,12.01
2022-11-05T13:28:46.823Z,12.18
2022-11-05T13:31:21.576Z,12.01
2022-11-05T13:33:52.229Z,11.89
2022-11-05T13:36:51.183Z,11.66
2022-11-05T13:39:36.570Z,11.81
2022-11-05T13:42:32.439Z,11.97
2022-11-05T13:45:50.706Z,12.08
2022-11-05T13:48:30.722Z,12.24
2022-11-05T13:51:14.001Z,12.23
2022-11-05T13:54:33.145Z,12.01
2022-11-05T13:57:26.870Z,11.37
2022-11-05T14:00:12.525Z,11.45
2022-11-05T14:02:48.037Z,11.89
2022-11-05T14:05:27.205Z,11.95
2022-11-05T14:07:59.015Z,12.01
2022-11-05T14:10:41.807Z,11.99
2022-11-05T14:13:51.304Z,12.15
2022-11-05T14:16:23.093Z,12.22
2022-11-05T14:19:20.287Z,12.09
2022-11-05T14:21:57.673Z,11.99
2022-11-05T14:24:44.205Z,12.00
2022-11-05T14:27:12.069Z,12.01
2022-11-05T14:29:48.256Z,11.94
2022-11-05T14:32:25.365Z,11.90
2022-11-05T14:35:15.289Z,11.88
2022-11-05T14:37:59.017Z,11.80
2022-11-05T14:40:44.653Z,11.71
2022-11-05T14:43:26.835Z,11.63
2022-11-05T14:46:06.099Z,11.58
2022-11-05T14:48:46.549Z,11.50
2022-11-05T14:51:40.245Z,11.45
2022-11-05T14:54:27.522Z,11.42
2022-11-05T14:56:59.417Z,11.40
2022-11-05T14:59:28.329Z,11.48
2022-11-05T15:02:11.309Z,11.44
2022-11-05T15:04:45.571Z,11.34
2022-11-05T15:07:35.402Z,11.25
2022-11-05T15:10:14.005Z,11.17
2022-11-05T15:12:52.345Z,11.10
2022-11-05T15:15:28.031Z,11.04
2022-11-05T15:18:29.419Z,10.94
2022-11-05T15:21:02.256Z,10.32
2022-11-05T15:23:40.709Z,10.77
2022-11-05T15:26:28.273Z,10.77
2022-11-05T15:28:56.390Z,10.80
2022-11-05T15:31:37.540Z,10.79
2022-11-05T15:34:25.722Z,10.79
2022-11-05T15:37:00.553Z,10.75
2022-11-05T15:39:46.848Z,10.22
2022-11-05T15:42:24.611Z,9.91
2022-11-05T15:44:58.289Z,9.75
2022-11-05T15:47:28.992Z,9.64
2022-11-05T15:50:06.511Z,9.66
2022-11-05T15:52:45.675Z,9.58
2022-11-05T15:55:13.518Z,9.51
2022-11-05T15:57:51.299Z,9.40
2022-11-05T16:00:27.045Z,9.33
2022-11-05T16:03:18.162Z,9.35
2022-11-05T16:05:48.420Z,9.30
2022-11-05T16:08:24.554Z,9.29
2022-11-05T16:10:56.261Z,9.16
2022-11-05T16:13:34.783Z,9.05
2022-11-05T16:16:31.382Z,9.05
2022-11-05T16:18:59.882Z,9.01
2022-11-05T16:21:27.808Z,9.02
2022-11-05T16:24:00.409Z,9.00
2022-11-05T16:27:01.867Z,9.08
2022-11-05T16:29:29.952Z,9.60
2022-11-05T16:32:01.107Z,9.67
2022-11-05T16:34:47.299Z,9.64
2022-11-05T16:37:20.580Z,9.01
2022-11-05T16:39:48.592Z,8.75
2022-11-05T16:42:22.663Z,8.65
2022-11-05T16:44:52.593Z,8.59
2022-11-05T16:47:22.457Z,8.53
2022-11-05T16:49:50.782Z,8.47
2022-11-05T16:52:19.323Z,8.44
2022-11-05T16:54:47.265Z,8.42
2022-11-05T16:57:32.167Z,8.44
2022-11-05T17:00:00.861Z,8.32
2022-11-05T17:02:29.003Z,8.41
2022-11-05T17:04:57.069Z,8.45
2022-11-05T17:07:25.063Z,8.38
2022-11-05T17:09:53.050Z,8.33
2022-11-05T17:12:21.012Z,8.28
2022-11-05T17:14:48.937Z,8.24
2022-11-05T17:17:16.854Z,8.24
2022-11-05T17:19:46.070Z,8.23
2022-11-05T17:22:13.961Z,8.20
2022-11-05T17:24:41.925Z,8.23
2022-11-05T17:27:09.808Z,8.21
2022-11-05T17:29:37.680Z,8.12
2022-11-05T17:32:06.399Z,8.13
2022-11-05T17:34:34.370Z,7.99
2022-11-05T17:37:02.276Z,7.95
2022-11-05T17:39:31.798Z,7.94
2022-11-05T17:42:00.227Z,7.89
2022-11-05T17:44:28.090Z,7.88
2022-11-05T17:46:55.964Z,7.83
2022-11-05T17:49:23.845Z,7.84
2022-11-05T17:51:51.695Z,8.03
2022-11-05T17:54:19.608Z,8.27
2022-11-05T17:56:47.465Z,8.81
2022-11-05T17:59:17.697Z,8.52
2022-11-05T18:01:46.063Z,8.36
2022-11-05T18:04:14.228Z,8.21
2022-11-05T18:06:43.055Z,7.88
2022-11-05T18:09:11.666Z,7.67
2022-11-05T18:11:40.768Z,7.58
2022-11-05T18:14:09.726Z,7.53
2022-11-05T18:16:38.084Z,7.44
2022-11-05T18:19:06.241Z,7.38
2022-11-05T18:21:34.130Z,7.28
2022-11-05T18:24:04.772Z,7.23
2022-11-05T18:26:33.788Z,7.20
2022-11-05T18:29:04.155Z,7.17
2022-11-05T18:31:32.057Z,7.14
2022-11-05T18:34:00.264Z,7.11
2022-11-05T18:36:31.189Z,7.06
2022-11-05T18:39:02.619Z,7.03
2022-11-05T18:41:30.960Z,7.00
2022-11-05T18:44:03.275Z,6.98
2022-11-05T18:49:20.590Z,6.94
2022-11-05T18:51:48.422Z,6.93
2022-11-05T18:54:16.856Z,6.86
2022-11-05T18:56:45.703Z,6.90
2022-11-05T19:02:08.474Z,7.02
2022-11-05T19:04:37.562Z,6.99
2022-11-05T19:07:08.213Z,6.96
2022-11-05T19:09:38.309Z,6.86
2022-11-05T19:12:07.816Z,6.75
2022-11-05T19:14:36.092Z,6.70
2022-11-05T19:17:04.309Z,6.66
2022-11-05T19:19:32.357Z,6.70
2022-11-05T19:22:00.426Z,6.73
2022-11-05T19:24:28.369Z,6.61
2022-11-05T19:26:56.625Z,6.54
2022-11-05T19:29:24.594Z,6.46
2022-11-05T19:31:52.706Z,6.40
2022-11-05T19:34:20.810Z,6.48
2022-11-05T19:36:48.735Z,6.57
2022-11-05T19:39:16.984Z,6.60
2022-11-05T19:41:44.924Z,6.49
2022-11-05T19:44:12.794Z,6.40
2022-11-05T19:46:41.396Z,6.35
2022-11-05T19:49:10.579Z,6.26
2022-11-05T19:51:39.460Z,6.25
2022-11-05T19:54:08.541Z,6.23
2022-11-05T19:56:38.472Z,6.15
2022-11-05T19:59:10.896Z,6.00
2022-11-05T20:01:39.190Z,6.00
2022-11-05T20:04:12.116Z,6.03
2022-11-05T20:06:40.708Z,6.03
2022-11-05T20:09:22.231Z,6.01
2022-11-05T20:11:54.268Z,5.99
2022-11-05T20:14:24.691Z,6.03
2022-11-05T20:16:54.687Z,6.04
2022-11-05T20:19:23.320Z,5.99
2022-11-05T20:21:51.488Z,5.94
2022-11-05T20:24:25.278Z,5.92
2022-11-05T20:26:56.144Z,5.92
2022-11-05T20:29:30.494Z,5.91
2022-11-05T20:31:58.644Z,5.90
2022-11-05T20:34:29.692Z,5.85
2022-11-05T20:36:57.696Z,5.82
2022-11-05T20:39:26.263Z,5.86
2022-11-05T20:41:56.333Z,5.82
2022-11-05T20:44:24.339Z,5.73
2022-11-05T20:46:52.403Z,5.70
2022-11-05T20:49:25.205Z,5.69
2022-11-05T20:51:54.355Z,5.66
2022-11-05T20:54:22.416Z,5.69
2022-11-05T20:56:50.707Z,5.62
2022-11-05T20:59:19.520Z,5.61
2022-11-05T21:01:48.094Z,5.63
2022-11-05T21:04:16.412Z,5.62
2022-11-05T21:06:44.391Z,5.63
2022-11-05T21:09:13.228Z,5.53
2022-11-05T21:11:59.910Z,5.44
2022-11-05T21:14:27.898Z,5.41
2022-11-05T21:16:55.937Z,5.43
2022-11-05T21:19:24.024Z,5.43
2022-11-05T21:21:51.983Z,5.39
2022-11-05T21:24:19.916Z,5.41
2022-11-05T21:26:49.838Z,5.35
2022-11-05T21:29:18.668Z,5.34
2022-11-05T21:31:47.170Z,5.33
2022-11-05T21:34:16.747Z,5.54
2022-11-05T21:36:45.077Z,5.54
2022-11-05T21:39:13.859Z,5.41
2022-11-05T21:41:42.712Z,5.32
2022-11-05T21:44:10.810Z,5.31
2022-11-05T21:46:38.797Z,5.33
2022-11-05T21:49:06.916Z,5.31
2022-11-05T21:51:53.566Z,5.24
2022-11-05T21:54:40.314Z,5.22
2022-11-05T21:57:33.657Z,5.21
2022-11-05T22:00:10.525Z,5.26
2022-11-05T22:02:38.707Z,5.24
2022-11-05T22:05:08.168Z,5.17
2022-11-05T22:07:38.853Z,5.17
2022-11-05T22:10:15.829Z,5.16
2022-11-05T22:12:45.532Z,5.12
2022-11-05T22:15:14.008Z,5.08
2022-11-05T22:17:46.540Z,5.18
2022-11-05T22:20:15.875Z,5.14
2022-11-05T22:22:45.008Z,5.13
2022-11-05T22:25:14.241Z,5.11
2022-11-05T22:27:43.737Z,5.09
2022-11-05T22:30:13.353Z,5.07
2022-11-05T22:32:41.657Z,5.01
2022-11-05T22:35:10.220Z,4.93
2022-11-05T22:37:38.218Z,4.91
2022-11-05T22:40:06.896Z,4.88
2022-11-05T22:42:34.902Z,5.20
2022-11-05T22:45:03.476Z,5.08
2022-11-05T22:47:31.459Z,4.95
2022-11-05T22:49:59.506Z,4.82
2022-11-05T22:52:27.428Z,4.80
2022-11-05T22:54:55.496Z,5.14
2022-11-05T22:57:23.583Z,5.03
2022-11-05T22:59:51.535Z,4.90
2022-11-05T23:02:19.928Z,4.82
2022-11-05T23:04:49.492Z,4.73
2022-11-05T23:07:36.867Z,4.67
2022-11-05T23:10:40.647Z,4.84
2022-11-05T23:13:08.588Z,4.75
2022-11-05T23:15:55.191Z,4.65
2022-11-05T23:18:41.853Z,4.59
2022-11-05T23:21:28.676Z,4.55
2022-11-05T23:24:05.437Z,4.48
2022-11-05T23:26:50.619Z,4.46
2022-11-05T23:29:24.833Z,4.45
2022-11-05T23:32:12.000Z,4.52
2022-11-05T23:34:40.188Z,4.53
2022-11-05T23:37:27.490Z,4.46
2022-11-05T23:39:55.388Z,4.39
2022-11-05T23:42:42.199Z,4.40
2022-11-05T23:45:29.264Z,4.39
2022-11-05T23:48:16.671Z,4.30
2022-11-05T23:50:50.812Z,4.21
2022-11-05T23:53:19.305Z,4.23
2022-11-05T23:55:48.471Z,4.26
2022-11-05T23:58:17.668Z,4.29
